Sterling, CO (80751)

1:34 PM MDT on July 26, 2014 (GMT -0600)
Charmony (KCOSTERL5) Elev 3930 ft | 40.64 °N, 103.20 °W | Change Station

Current weather conditions updated 10 minutes ago

Clear
Clear
83.8 °F
Feels Like 83 °F
N
2.2
Wind Variable Wind from NNE

Today is forecast to be Cooler than yesterday.

Today
High -- | Low -- °F
--% Chance of Precip.
Yesterday
High -- | Low -- °F
Precip. -- in
5:44 AM 8:14 PM
Waning Crescent, 0% visible
Pressure 30.08 in
Visibility 10.0 miles
Clouds Clear
Heat Index 83 °F
Dew Point 57 °F
Humidity 40%
Rainfall 0.00 in
Snow Depth Not available.
UV 12 out of 12
Pollen 7.50 out of 12
Air Quality Not available.
Flu Activity Not available.
METAR KSTK 261915Z AUTO 04004KT 10SM CLR 30/12 A3008 RMK AO2

More Conditions Fewer Conditions

Pressure 30.08 in
Visibility 10.0 miles
Clouds Clear
Heat Index 83 °F
Dew Point 57 °F
Humidity 40%
Rainfall 0.00 in
Snow Depth Not available.
UV 12 out of 12
Pollen 7.50 out of 12
Air Quality Not available.
Flu Activity Not available.
METAR KSTK 261915Z AUTO 04004KT 10SM CLR 30/12 A3008 RMK AO2

More Conditions Fewer Conditions

10-Day Weather Forecast

Almanac

Astronomy

Jul. 26, 2014 Rise Set
Actual Time 5:44 AM MDT 8:14 PM MDT
Civil Twilight 5:12 AM MDT 8:45 PM MDT
Nautical Twilight 4:34 AM MDT 9:23 PM MDT
Astronomical Twilight 3:50 AM MDT 10:07 PM MDT
Moon 5:39 AM MDT 7:49 PM MDT
Length of Visible Light 15h 32m
Length of Day
14h 29m
Tomorrow will be 1m 51s shorter.
Waning Crescent, 0% of the Moon is Illuminated
Today
Waning Crescent
Jul 26
New
Aug 3
First Quarter
Aug 10
Full
Aug 17
Last Quarter

Today's Extremes

State Highs State Lows

Community

WunderPhotos

Upload Photos

1,737,682 photos uploaded!

Nearby

Snow Depth

Station Depth Elevation
Niwot 0 in 9910 ft
University Camp 0 in 10300 ft
Lake Irene 2 in 10700 ft
Never Summer 0 in 10280 ft
Rawah 8 in 9020 ft

Earthquake Activity

City Distance Mag. Time & Date
No recent earthquake activity has been reported nearby.
Minimum magnitude displayed is 2.5.

Coastal Water Temperatures

Place Temperature
No Stations Reporting

Nearby Weather Stations

Station Location Temp. Heat Index Dew Point Humidity Wind Precip. Elev Updated Type
Charmony, Sterling, CO 83.8 °F 83 °F 57 °F 40% NNE  at  2.2 mph - / hr 3930 ft 1:24 PM MDT Normal
Northern Washington County, Akron, CO 90.0 °F 87 °F 49 °F 25% ENE  at  9.9 mph - / hr 4453 ft 1:22 PM MDT Normal

Show More Stations Show Fewer Stations